createdAt,value
2022-08-11T00:00:58.396Z,2.20
2022-08-11T00:03:25.481Z,2.63
2022-08-11T00:06:11.085Z,2.80
2022-08-11T00:08:38.008Z,2.50
2022-08-11T00:11:07.945Z,2.70
2022-08-11T00:13:45.257Z,2.92
2022-08-11T00:16:23.779Z,2.28
2022-08-11T00:18:53.361Z,2.78
2022-08-11T00:22:03.167Z,2.90
2022-08-11T00:24:08.659Z,2.72
2022-08-11T00:26:36.365Z,2.42
2022-08-11T00:29:10.914Z,2.88
2022-08-11T00:31:38.287Z,2.80
2022-08-11T00:34:11.282Z,2.40
2022-08-11T00:36:55.822Z,2.65
2022-08-11T00:39:29.150Z,3.00
2022-08-11T00:42:24.924Z,2.42
2022-08-11T00:45:22.498Z,3.13
2022-08-11T00:48:10.180Z,2.45
2022-08-11T00:50:43.558Z,2.47
2022-08-11T00:53:33.976Z,2.72
2022-08-11T00:56:56.420Z,2.70
2022-08-11T00:59:41.543Z,2.60
2022-08-11T01:02:39.493Z,2.65
2022-08-11T01:05:28.545Z,3.08
2022-08-11T01:08:08.217Z,3.03
2022-08-11T01:11:12.637Z,3.17
2022-08-11T01:14:03.470Z,3.03
2022-08-11T01:17:18.064Z,3.10
2022-08-11T01:20:45.762Z,3.17
2022-08-11T01:23:09.164Z,2.45
2022-08-11T01:25:56.500Z,3.10
2022-08-11T01:28:52.018Z,2.90
2022-08-11T01:31:38.185Z,3.15
2022-08-11T01:34:42.141Z,3.00
2022-08-11T01:37:20.767Z,2.72
2022-08-11T01:40:14.899Z,2.92
2022-08-11T01:43:28.910Z,3.13
2022-08-11T01:46:27.094Z,2.80
2022-08-11T01:50:07.030Z,2.75
2022-08-11T01:52:07.754Z,2.65
2022-08-11T01:55:13.312Z,2.90
2022-08-11T01:57:47.681Z,2.75
2022-08-11T02:00:24.036Z,3.22
2022-08-11T02:03:11.616Z,3.10
2022-08-11T02:06:01.250Z,2.75
2022-08-11T02:09:13.308Z,3.10
2022-08-11T02:11:45.784Z,2.70
2022-08-11T02:14:20.812Z,2.95
2022-08-11T02:17:07.327Z,2.90
2022-08-11T02:20:07.729Z,2.90
2022-08-11T02:23:14.973Z,2.72
2022-08-11T02:26:13.476Z,2.60
2022-08-11T02:29:16.923Z,2.70
2022-08-11T02:32:33.793Z,2.80
2022-08-11T02:35:14.587Z,2.92
2022-08-11T02:37:51.405Z,2.53
2022-08-11T02:40:25.293Z,2.60
2022-08-11T02:43:19.092Z,2.60
2022-08-11T02:46:18.239Z,3.38
2022-08-11T02:49:15.087Z,2.85
2022-08-11T02:52:03.804Z,2.92
2022-08-11T02:54:42.649Z,3.10
2022-08-11T02:57:22.439Z,2.72
2022-08-11T02:59:53.886Z,2.75
2022-08-11T03:02:47.325Z,2.97
2022-08-11T03:05:44.412Z,3.08
2022-08-11T03:08:33.241Z,3.17
2022-08-11T03:11:35.047Z,2.85
2022-08-11T03:14:28.791Z,3.10
2022-08-11T03:17:30.479Z,3.08
2022-08-11T03:25:46.271Z,2.58
2022-08-11T03:28:26.348Z,3.40
2022-08-11T03:31:02.124Z,3.30
2022-08-11T03:33:56.257Z,3.63
2022-08-11T03:37:17.101Z,3.42
2022-08-11T03:42:50.296Z,3.10
2022-08-11T03:45:43.240Z,3.28
2022-08-11T03:48:13.875Z,3.55
2022-08-11T03:51:03.526Z,3.10
2022-08-11T03:53:51.965Z,3.63
2022-08-11T03:56:57.222Z,3.50
2022-08-11T03:59:45.566Z,3.28
2022-08-11T04:02:32.755Z,3.58
2022-08-11T04:06:02.454Z,3.40
2022-08-11T04:08:56.868Z,3.78
2022-08-11T04:11:51.556Z,3.80
2022-08-11T04:14:50.208Z,3.88
2022-08-11T04:17:38.685Z,4.10
2022-08-11T04:20:23.926Z,3.97
2022-08-11T04:23:03.229Z,3.88
2022-08-11T04:26:18.760Z,4.45
2022-08-11T04:29:24.863Z,3.50
2022-08-11T04:32:40.130Z,3.78
2022-08-11T04:35:11.039Z,3.40
2022-08-11T04:37:53.393Z,3.28
2022-08-11T04:40:53.508Z,3.35
2022-08-11T04:44:07.947Z,3.67
2022-08-11T04:46:58.247Z,3.38
2022-08-11T04:50:13.911Z,4.05
2022-08-11T04:53:25.090Z,3.40
2022-08-11T04:56:26.244Z,4.18
2022-08-11T04:59:26.681Z,3.65
2022-08-11T05:02:21.462Z,3.47
2022-08-11T05:05:18.123Z,3.65
2022-08-11T05:08:23.917Z,3.83
2022-08-11T05:11:12.664Z,3.90
2022-08-11T05:14:05.946Z,4.65
2022-08-11T05:17:10.213Z,3.65
2022-08-11T05:19:55.270Z,4.13
2022-08-11T05:22:47.464Z,4.13
2022-08-11T05:26:44.420Z,3.83
2022-08-11T05:31:35.495Z,3.92
2022-08-11T05:34:27.855Z,3.90
2022-08-11T05:37:23.930Z,3.78
2022-08-11T05:40:08.731Z,3.88
2022-08-11T05:43:01.344Z,3.97
2022-08-11T05:46:03.490Z,3.75
2022-08-11T05:48:52.408Z,4.05
2022-08-11T05:51:37.979Z,3.72
2022-08-11T05:54:27.944Z,4.25
2022-08-11T05:57:00.198Z,3.42
2022-08-11T05:59:28.265Z,3.78
2022-08-11T06:02:01.305Z,3.47
2022-08-11T06:04:28.341Z,3.40
2022-08-11T06:07:00.567Z,3.92
2022-08-11T06:09:50.669Z,3.60
2022-08-11T06:12:20.827Z,3.60
2022-08-11T06:15:01.857Z,4.43
2022-08-11T06:17:39.086Z,3.40
2022-08-11T06:20:13.163Z,4.20
2022-08-11T06:22:42.647Z,4.07
2022-08-11T06:25:10.291Z,3.80
2022-08-11T06:27:38.126Z,3.47
2022-08-11T06:30:13.573Z,3.72
2022-08-11T06:32:44.682Z,3.50
2022-08-11T06:35:35.547Z,3.72
2022-08-11T06:38:20.834Z,3.63
2022-08-11T06:41:18.549Z,3.40
2022-08-11T06:43:55.458Z,3.25
2022-08-11T06:46:29.261Z,3.72
2022-08-11T06:48:56.275Z,3.30
2022-08-11T06:51:23.119Z,3.72
2022-08-11T06:54:04.404Z,3.60
2022-08-11T06:57:12.495Z,3.67
2022-08-11T07:00:00.312Z,3.80
2022-08-11T07:02:33.764Z,3.58
2022-08-11T07:05:03.725Z,3.38
2022-08-11T07:07:54.775Z,3.33
2022-08-11T07:10:49.178Z,3.50
2022-08-11T07:13:45.573Z,4.20
2022-08-11T07:16:16.302Z,4.05
2022-08-11T07:19:02.321Z,3.97
2022-08-11T07:22:03.106Z,3.72
2022-08-11T07:25:08.356Z,3.60
2022-08-11T07:28:02.308Z,3.85
2022-08-11T07:30:29.334Z,3.72
2022-08-11T07:32:58.462Z,3.50
2022-08-11T07:35:32.651Z,4.25
2022-08-11T07:38:04.793Z,3.88
2022-08-11T07:40:34.721Z,3.83
2022-08-11T07:43:01.562Z,4.13
2022-08-11T07:45:47.059Z,3.33
2022-08-11T07:48:34.126Z,4.00
2022-08-11T07:51:20.131Z,4.10
2022-08-11T07:53:58.666Z,4.32
2022-08-11T07:56:48.722Z,3.78
2022-08-11T08:00:04.086Z,4.43
2022-08-11T08:02:44.765Z,3.65
2022-08-11T08:05:30.325Z,3.47
2022-08-11T08:08:15.747Z,3.72
2022-08-11T08:11:03.308Z,3.38
2022-08-11T08:13:50.860Z,3.83
2022-08-11T08:16:36.389Z,3.40
2022-08-11T08:19:03.023Z,3.22
2022-08-11T08:21:32.120Z,3.58
2022-08-11T08:23:58.709Z,3.40
2022-08-11T08:26:51.538Z,3.38
2022-08-11T08:29:38.337Z,3.00
2022-08-11T08:32:05.539Z,3.13
2022-08-11T08:34:33.866Z,3.30
2022-08-11T08:37:01.879Z,2.83
2022-08-11T08:39:28.996Z,3.17
2022-08-11T08:41:57.262Z,3.42
2022-08-11T08:44:41.877Z,3.58
2022-08-11T08:47:14.860Z,2.85
2022-08-11T08:50:05.574Z,3.40
2022-08-11T08:52:43.686Z,3.10
2022-08-11T08:55:12.906Z,3.08
2022-08-11T08:57:41.307Z,2.67
2022-08-11T09:00:13.791Z,2.85
2022-08-11T09:02:42.224Z,2.50
2022-08-11T09:05:10.068Z,2.90
2022-08-11T09:07:38.811Z,2.85
2022-08-11T09:10:07.278Z,2.90
2022-08-11T09:12:38.199Z,3.00
2022-08-11T09:15:06.262Z,2.55
2022-08-11T09:17:36.368Z,2.90
2022-08-11T09:20:12.852Z,3.25
2022-08-11T09:23:41.732Z,2.83
2022-08-11T09:26:05.937Z,2.97
2022-08-11T09:28:32.829Z,2.97
2022-08-11T09:31:01.126Z,2.90
2022-08-11T09:33:29.149Z,3.10
2022-08-11T09:35:56.296Z,2.92
2022-08-11T09:38:47.461Z,2.70
2022-08-11T09:41:16.734Z,3.30
2022-08-11T09:44:04.322Z,2.90
2022-08-11T09:46:32.750Z,2.88
2022-08-11T09:49:00.510Z,2.72
2022-08-11T09:51:32.539Z,2.35
2022-08-11T09:54:06.489Z,2.55
2022-08-11T09:56:52.515Z,2.72
2022-08-11T09:59:20.969Z,2.47
2022-08-11T10:01:51.360Z,2.80
2022-08-11T10:04:22.916Z,3.30
2022-08-11T10:07:01.791Z,2.15
2022-08-11T10:09:50.943Z,2.58
2022-08-11T10:12:27.815Z,2.65
2022-08-11T10:15:15.748Z,2.33
2022-08-11T10:18:05.802Z,2.60
2022-08-11T10:20:35.627Z,2.70
2022-08-11T10:23:22.433Z,2.25
2022-08-11T10:26:07.904Z,2.42
2022-08-11T10:28:50.060Z,2.85
2022-08-11T10:31:55.455Z,2.40
2022-08-11T10:34:25.609Z,2.50
2022-08-11T10:36:55.273Z,2.60
2022-08-11T10:39:22.288Z,2.53
2022-08-11T10:42:12.217Z,2.95
2022-08-11T10:44:45.957Z,2.47
2022-08-11T10:47:32.517Z,2.60
2022-08-11T10:50:18.007Z,2.83
2022-08-11T10:53:06.467Z,3.08
2022-08-11T10:55:52.796Z,3.15
2022-08-11T10:58:38.390Z,2.25
2022-08-11T11:01:05.489Z,2.63
2022-08-11T11:03:35.441Z,2.88
2022-08-11T11:06:28.245Z,2.25
2022-08-11T11:09:05.217Z,2.58
2022-08-11T11:11:55.802Z,2.50
2022-08-11T11:14:46.703Z,2.20
2022-08-11T11:17:25.883Z,2.25
2022-08-11T11:19:57.294Z,2.72
2022-08-11T11:22:39.874Z,2.60
2022-08-11T11:25:21.332Z,2.40
2022-08-11T11:28:16.408Z,2.65
2022-08-11T11:30:55.490Z,2.33
2022-08-11T11:34:12.412Z,2.42
2022-08-11T11:36:46.228Z,2.72
2022-08-11T11:39:13.245Z,2.38
2022-08-11T11:41:41.081Z,2.78
2022-08-11T11:44:08.332Z,2.50
2022-08-11T11:46:38.577Z,2.70
2022-08-11T11:49:10.731Z,2.65
2022-08-11T11:51:44.953Z,2.70
2022-08-11T11:54:15.375Z,2.60
2022-08-11T11:56:42.967Z,2.70
2022-08-11T11:59:28.837Z,2.30
2022-08-11T12:01:56.153Z,2.83
2022-08-11T12:04:23.395Z,2.47
2022-08-11T12:06:50.200Z,2.50
2022-08-11T12:09:22.735Z,2.65
2022-08-11T12:12:08.569Z,2.72
2022-08-11T12:14:36.735Z,2.92
2022-08-11T12:17:03.407Z,2.70
2022-08-11T12:19:35.690Z,2.78
2022-08-11T12:22:21.454Z,3.17
2022-08-11T12:25:06.972Z,2.90
2022-08-11T12:27:33.583Z,2.92
2022-08-11T12:30:06.228Z,3.20
2022-08-11T12:32:36.297Z,2.97
2022-08-11T12:35:04.053Z,2.83
2022-08-11T12:37:33.222Z,2.67
2022-08-11T12:40:43.552Z,2.60
2022-08-11T12:43:37.876Z,3.10
2022-08-11T12:46:08.856Z,3.20
2022-08-11T12:48:59.136Z,3.08
2022-08-11T12:52:01.432Z,2.33
2022-08-11T12:54:40.248Z,2.63
2022-08-11T12:57:36.823Z,3.25
2022-08-11T13:00:26.852Z,3.00
2022-08-11T13:03:13.870Z,2.88
2022-08-11T13:05:44.486Z,2.80
2022-08-11T13:08:14.286Z,3.08
2022-08-11T13:11:00.060Z,2.72
2022-08-11T13:13:54.623Z,2.70
2022-08-11T13:16:15.026Z,2.70
2022-08-11T13:18:42.881Z,3.10
2022-08-11T13:21:20.350Z,2.65
2022-08-11T13:24:01.507Z,2.80
2022-08-11T13:26:47.633Z,3.00
2022-08-11T13:29:24.743Z,2.40
2022-08-11T13:31:52.649Z,2.83
2022-08-11T13:34:20.648Z,2.65
2022-08-11T13:36:51.949Z,2.85
2022-08-11T13:39:20.422Z,2.67
2022-08-11T13:41:48.446Z,2.55
2022-08-11T13:44:21.548Z,3.05
2022-08-11T13:46:53.131Z,2.67
2022-08-11T13:49:20.994Z,3.33
2022-08-11T13:51:48.120Z,2.80
2022-08-11T13:54:25.948Z,2.65
2022-08-11T13:56:55.117Z,2.97
2022-08-11T13:59:24.053Z,2.70
2022-08-11T14:02:21.286Z,2.70
2022-08-11T14:04:57.481Z,3.03
2022-08-11T14:07:27.887Z,2.55
2022-08-11T14:09:59.202Z,2.88
2022-08-11T14:12:50.437Z,2.88
2022-08-11T14:15:32.976Z,2.95
2022-08-11T14:18:06.720Z,2.90
2022-08-11T14:20:56.195Z,2.47
2022-08-11T14:23:28.149Z,3.13
2022-08-11T14:26:14.792Z,2.97
2022-08-11T14:28:44.987Z,3.10
2022-08-11T14:31:15.970Z,3.40
2022-08-11T14:34:00.645Z,3.03
2022-08-11T14:36:37.252Z,2.70
2022-08-11T14:39:18.249Z,2.90
2022-08-11T14:45:02.472Z,2.97
2022-08-11T14:47:32.628Z,2.75
2022-08-11T14:50:10.199Z,3.05
2022-08-11T14:52:44.746Z,3.13
2022-08-11T14:55:30.694Z,3.20
2022-08-11T14:57:57.672Z,3.00
2022-08-11T15:00:25.009Z,2.90
2022-08-11T15:03:10.708Z,3.35
2022-08-11T15:05:57.281Z,2.83
2022-08-11T15:08:48.621Z,3.40
2022-08-11T15:11:37.647Z,2.83
2022-08-11T15:14:07.122Z,3.00
2022-08-11T15:16:53.611Z,2.95
2022-08-11T15:19:23.609Z,3.22
2022-08-11T15:22:09.120Z,2.70
2022-08-11T15:24:36.574Z,2.83
2022-08-11T15:27:32.466Z,3.10
2022-08-11T15:30:33.419Z,2.85
2022-08-11T15:33:27.264Z,2.80
2022-08-11T15:36:13.413Z,3.40
2022-08-11T15:38:42.906Z,2.97
2022-08-11T15:41:28.710Z,3.05
2022-08-11T15:44:14.657Z,3.53
2022-08-11T15:46:45.185Z,3.38
2022-08-11T15:49:21.719Z,3.00
2022-08-11T15:52:03.813Z,2.80
2022-08-11T15:54:32.132Z,2.80
2022-08-11T15:57:01.730Z,3.30
2022-08-11T15:59:53.048Z,3.17
2022-08-11T16:02:40.351Z,3.25
2022-08-11T16:05:10.141Z,3.30
2022-08-11T16:07:40.472Z,3.10
2022-08-11T16:13:06.079Z,2.90
2022-08-11T16:15:53.205Z,3.10
2022-08-11T16:18:22.086Z,3.08
2022-08-11T16:20:51.975Z,2.95
2022-08-11T16:23:19.146Z,2.95
2022-08-11T16:27:03.405Z,2.88
2022-08-11T16:28:34.419Z,2.78
2022-08-11T16:31:01.605Z,3.00
2022-08-11T16:33:50.676Z,3.10
2022-08-11T16:36:35.370Z,2.88
2022-08-11T16:39:02.856Z,2.95
2022-08-11T16:41:51.312Z,3.10
2022-08-11T16:44:38.371Z,2.85
2022-08-11T16:47:10.887Z,3.05
2022-08-11T16:49:52.268Z,2.92
2022-08-11T16:52:20.258Z,3.17
2022-08-11T16:54:49.943Z,3.25
2022-08-11T16:57:42.815Z,3.25
2022-08-11T17:00:12.515Z,3.28
2022-08-11T17:03:06.274Z,2.92
2022-08-11T17:05:55.151Z,3.20
2022-08-11T17:08:56.629Z,3.05
2022-08-11T17:11:48.155Z,2.78
2022-08-11T17:14:35.453Z,2.73
2022-08-11T17:17:04.918Z,2.90
2022-08-11T17:20:39.706Z,3.05
2022-08-11T17:22:39.420Z,3.10
2022-08-11T17:25:07.083Z,3.25
2022-08-11T17:27:34.505Z,2.80
2022-08-11T17:30:05.958Z,3.00
2022-08-11T17:33:00.635Z,3.60
2022-08-11T17:35:45.989Z,2.83
2022-08-11T17:38:17.628Z,2.88
2022-08-11T17:41:08.826Z,2.80
2022-08-11T17:43:54.519Z,3.00
2022-08-11T17:46:40.467Z,2.90
2022-08-11T17:49:08.949Z,3.30
2022-08-11T17:51:56.315Z,3.03
2022-08-11T17:54:42.248Z,3.03
2022-08-11T17:57:27.638Z,2.85
2022-08-11T17:59:56.917Z,3.53
2022-08-11T18:02:48.585Z,3.00
2022-08-11T18:05:18.326Z,2.83
2022-08-11T18:08:04.184Z,3.25
2022-08-11T18:10:51.040Z,3.20
2022-08-11T18:13:39.152Z,3.13
2022-08-11T18:16:24.665Z,3.45
2022-08-11T18:19:09.565Z,2.75
2022-08-11T18:22:02.332Z,3.22
2022-08-11T18:25:05.876Z,3.08
2022-08-11T18:27:52.465Z,3.42
2022-08-11T18:30:37.964Z,3.15
2022-08-11T18:36:32.067Z,3.20
2022-08-11T18:39:18.518Z,3.00
2022-08-11T18:42:05.691Z,3.00
2022-08-11T18:44:51.627Z,3.20
2022-08-11T18:47:38.666Z,3.25
2022-08-11T18:50:38.764Z,2.85
2022-08-11T18:53:25.686Z,3.13
2022-08-11T18:56:11.138Z,2.65
2022-08-11T18:59:00.316Z,3.33
2022-08-11T19:01:46.293Z,2.97
2022-08-11T19:04:32.546Z,3.13
2022-08-11T19:07:24.519Z,3.20
2022-08-11T19:10:09.887Z,3.78
2022-08-11T19:12:58.033Z,3.60
2022-08-11T19:15:43.426Z,3.90
2022-08-11T19:18:34.541Z,4.20
2022-08-11T19:21:20.112Z,3.28
2022-08-11T19:24:09.151Z,3.33
2022-08-11T19:26:55.700Z,3.38
2022-08-11T19:30:04.805Z,3.45
2022-08-11T19:32:48.675Z,2.95
2022-08-11T19:35:34.642Z,3.25
2022-08-11T19:38:20.710Z,3.80
2022-08-11T19:41:06.685Z,3.70
2022-08-11T19:43:52.999Z,3.35
2022-08-11T19:46:39.980Z,3.55
2022-08-11T19:49:25.698Z,3.33
2022-08-11T19:52:11.340Z,3.13
2022-08-11T19:54:57.872Z,3.28
2022-08-11T19:57:43.838Z,4.03
2022-08-11T20:00:37.963Z,3.70
2022-08-11T20:03:26.179Z,3.13
2022-08-11T20:06:12.225Z,3.53
2022-08-11T20:09:00.889Z,4.00
2022-08-11T20:11:50.337Z,3.53
2022-08-11T20:14:36.807Z,3.17
2022-08-11T20:17:22.343Z,3.50
2022-08-11T20:20:07.683Z,3.45
2022-08-11T20:22:52.663Z,3.78
2022-08-11T20:25:38.616Z,2.63
2022-08-11T20:28:25.089Z,3.88
2022-08-11T20:31:10.978Z,3.40
2022-08-11T20:33:57.178Z,4.03
2022-08-11T20:36:42.611Z,3.78
2022-08-11T20:39:29.170Z,3.60
2022-08-11T20:42:15.520Z,3.55
2022-08-11T20:45:00.931Z,3.88
2022-08-11T20:47:56.571Z,3.22
2022-08-11T20:50:46.481Z,3.58
2022-08-11T20:53:35.921Z,3.80
2022-08-11T20:56:28.578Z,4.13
2022-08-11T20:59:17.630Z,3.90
2022-08-11T21:02:09.733Z,4.60
2022-08-11T21:04:56.612Z,3.45
2022-08-11T21:07:44.958Z,4.05
2022-08-11T21:10:46.939Z,3.90
2022-08-11T21:13:33.352Z,4.05
2022-08-11T21:16:26.197Z,3.78
2022-08-11T21:20:01.599Z,4.22
2022-08-11T21:22:27.861Z,3.90
2022-08-11T21:25:15.833Z,3.80
2022-08-11T21:28:01.391Z,3.80
2022-08-11T21:30:47.639Z,4.00
2022-08-11T21:33:33.007Z,4.15
2022-08-11T21:36:18.587Z,4.03
2022-08-11T21:39:05.504Z,4.00
2022-08-11T21:41:51.384Z,3.80
2022-08-11T21:44:36.981Z,4.13
2022-08-11T21:47:42.396Z,4.32
2022-08-11T21:50:28.381Z,3.88
2022-08-11T21:53:14.894Z,4.35
2022-08-11T21:56:00.206Z,4.20
2022-08-11T21:58:45.607Z,3.85
2022-08-11T22:01:30.769Z,3.85
2022-08-11T22:04:19.919Z,4.20
2022-08-11T22:07:05.805Z,3.90
2022-08-11T22:09:51.499Z,4.43
2022-08-11T22:12:40.983Z,4.15
2022-08-11T22:15:29.844Z,4.55
2022-08-11T22:18:14.818Z,4.45
2022-08-11T22:21:01.227Z,4.45
2022-08-11T22:23:48.111Z,3.97
2022-08-11T22:26:36.654Z,3.88
2022-08-11T22:29:49.193Z,4.20
2022-08-11T22:32:31.192Z,3.83
2022-08-11T22:35:16.604Z,4.25
2022-08-11T22:38:02.960Z,4.32
2022-08-11T22:40:48.386Z,4.28
2022-08-11T22:43:33.546Z,4.00
2022-08-11T22:46:19.209Z,3.65
2022-08-11T22:49:05.290Z,4.28
2022-08-11T22:51:51.739Z,4.15
2022-08-11T22:54:37.994Z,3.92
2022-08-11T22:57:24.396Z,3.92
2022-08-11T23:00:10.943Z,3.90
2022-08-11T23:02:57.110Z,3.88
2022-08-11T23:05:42.957Z,4.20
2022-08-11T23:08:28.432Z,4.10
2022-08-11T23:11:15.375Z,3.53
2022-08-11T23:14:00.975Z,4.13
2022-08-11T23:16:46.421Z,3.72
2022-08-11T23:20:04.856Z,4.40
2022-08-11T23:22:49.223Z,4.38
2022-08-11T23:25:36.171Z,3.70
2022-08-11T23:28:22.118Z,4.28
2022-08-11T23:31:09.845Z,3.88
2022-08-11T23:33:57.026Z,4.25
2022-08-11T23:36:47.792Z,4.50
2022-08-11T23:39:34.642Z,4.72
2022-08-11T23:42:21.182Z,4.22
2022-08-11T23:45:09.763Z,4.50
2022-08-11T23:47:55.494Z,4.50
2022-08-11T23:50:41.743Z,4.20
2022-08-11T23:53:27.333Z,4.35
2022-08-11T23:56:13.265Z,4.22
2022-08-11T23:58:58.716Z,4.40
